Time;durP1;ratioP1;P1;durP2;ratioP2;P2;SDS_P1;SDS_P2;PMS_P1;PMS_P2;Temp;Humidity;BMP_temperature;BMP_pressure;BME280_temperature;BME280_humidity;BME280_pressure;Samples;Min_cycle;Max_cycle;Signal;HPM_P1;HPM_P2
2021/10/30 00:04:23;;;;;;;24.10;10.50;;;5.00;99.90;;;;;;10337910;28;20109;-57
2021/10/30 00:09:25;;;;;;;27.70;11.13;;;5.00;99.90;;;;;;10350887;28;20123;-57
2021/10/30 00:14:27;;;;;;;22.05;9.75;;;5.00;99.90;;;;;;10351254;28;20149;-57
2021/10/30 00:19:28;;;;;;;25.13;11.15;;;5.00;99.90;;;;;;10345961;28;20108;-57
2021/10/30 00:24:32;;;;;;;25.92;10.85;;;5.00;99.90;;;;;;10351444;28;20058;-57
2021/10/30 00:29:34;;;;;;;22.10;9.50;;;5.00;99.90;;;;;;10348183;28;20065;-57
2021/10/30 00:34:35;;;;;;;21.13;9.35;;;4.90;99.90;;;;;;10352533;28;20054;-57
2021/10/30 00:39:38;;;;;;;23.60;9.30;;;4.90;99.90;;;;;;10325087;28;20085;-57
2021/10/30 00:44:40;;;;;;;22.67;8.55;;;4.80;99.90;;;;;;10348885;28;20137;-57
2021/10/30 00:49:43;;;;;;;25.95;10.27;;;4.80;99.90;;;;;;10355850;28;20586;-57
2021/10/30 00:54:46;;;;;;;22.77;8.50;;;4.70;99.90;;;;;;10349555;28;20050;-57
2021/10/30 00:59:48;;;;;;;22.27;10.07;;;4.60;99.90;;;;;;10346707;28;20053;-57
2021/10/30 01:04:49;;;;;;;19.77;9.18;;;4.60;99.90;;;;;;10347856;28;20049;-57
2021/10/30 01:09:52;;;;;;;22.65;9.43;;;4.60;99.90;;;;;;10347949;28;20095;-57
2021/10/30 01:14:55;;;;;;;23.98;10.35;;;4.60;99.90;;;;;;10347540;28;20081;-57
2021/10/30 01:19:56;;;;;;;21.30;8.75;;;4.60;99.90;;;;;;10349122;28;20069;-57
2021/10/30 01:24:58;;;;;;;26.00;9.65;;;4.60;99.90;;;;;;10347316;28;20042;-57
2021/10/30 01:29:59;;;;;;;19.80;8.43;;;4.50;99.90;;;;;;10347511;28;20054;-57
2021/10/30 01:35:01;;;;;;;26.95;10.07;;;4.50;99.90;;;;;;10345754;28;20080;-56
2021/10/30 01:40:03;;;;;;;24.50;9.18;;;4.50;99.90;;;;;;10346400;28;20062;-57
2021/10/30 01:45:05;;;;;;;24.58;9.45;;;4.40;99.90;;;;;;10347838;28;20049;-57
2021/10/30 01:50:12;;;;;;;22.15;9.43;;;4.40;99.90;;;;;;10347151;28;20081;-57
2021/10/30 01:55:16;;;;;;;25.15;9.82;;;4.40;99.90;;;;;;10344188;28;20054;-57
2021/10/30 02:00:19;;;;;;;21.92;10.13;;;4.40;99.90;;;;;;10331666;28;20081;-58
2021/10/30 02:05:21;;;;;;;25.42;10.27;;;4.40;99.90;;;;;;10346689;28;20053;-57
2021/10/30 02:10:22;;;;;;;24.52;10.02;;;4.40;99.90;;;;;;10346363;28;20050;-57
2021/10/30 02:15:24;;;;;;;28.08;10.05;;;4.30;99.90;;;;;;10354634;28;20144;-57
2021/10/30 02:20:26;;;;;;;22.98;9.73;;;4.30;99.90;;;;;;10349660;28;20124;-58
2021/10/30 02:25:27;;;;;;;20.50;8.27;;;4.30;99.90;;;;;;10343388;28;20057;-57
2021/10/30 02:30:29;;;;;;;26.35;9.45;;;4.30;99.90;;;;;;10349021;28;20109;-57
2021/10/30 02:35:31;;;;;;;21.73;9.80;;;4.20;99.90;;;;;;10348971;28;20084;-57
2021/10/30 02:40:33;;;;;;;23.35;9.73;;;4.20;99.90;;;;;;10357149;28;20120;-57
2021/10/30 02:45:35;;;;;;;23.50;9.23;;;4.20;99.90;;;;;;10358566;28;20078;-57
2021/10/30 02:50:36;;;;;;;29.17;10.65;;;4.10;99.90;;;;;;10349456;28;20069;-57
2021/10/30 02:55:38;;;;;;;22.83;9.73;;;4.10;99.90;;;;;;10357962;28;20115;-57
2021/10/30 03:00:40;;;;;;;22.98;9.07;;;4.10;99.90;;;;;;10357180;28;20077;-57
2021/10/30 03:05:42;;;;;;;20.45;8.95;;;4.10;99.90;;;;;;10353655;28;20133;-57
2021/10/30 03:10:43;;;;;;;20.92;8.57;;;4.10;99.90;;;;;;10351573;28;20174;-57
2021/10/30 03:15:45;;;;;;;26.75;9.98;;;4.10;99.90;;;;;;10357355;28;20092;-57
2021/10/30 03:20:47;;;;;;;21.98;8.65;;;4.00;99.90;;;;;;10339028;28;20053;-57
2021/10/30 03:25:49;;;;;;;24.55;10.00;;;4.10;99.90;;;;;;10352367;28;20111;-57
2021/10/30 03:30:51;;;;;;;26.33;10.05;;;4.00;99.90;;;;;;10352787;28;20068;-57
2021/10/30 03:35:52;;;;;;;27.83;9.77;;;4.10;99.90;;;;;;10352828;28;20078;-57
2021/10/30 03:40:54;;;;;;;24.48;9.77;;;4.10;99.90;;;;;;10351689;28;20124;-57
2021/10/30 03:45:56;;;;;;;24.42;9.10;;;4.10;99.90;;;;;;10339182;28;20081;-58
2021/10/30 03:50:58;;;;;;;38.38;14.00;;;4.10;99.90;;;;;;10356168;28;20053;-58
2021/10/30 03:56:01;;;;;;;44.00;16.00;;;4.10;99.90;;;;;;10351168;28;20089;-58
2021/10/30 04:01:02;;;;;;;33.50;11.57;;;4.10;99.90;;;;;;10337913;28;20191;-58
2021/10/30 04:06:06;;;;;;;29.02;10.50;;;4.10;99.90;;;;;;10356628;28;20125;-58
2021/10/30 04:11:08;;;;;;;27.00;9.80;;;4.10;99.90;;;;;;10355041;28;20551;-58
2021/10/30 04:16:10;;;;;;;29.70;9.75;;;4.10;99.90;;;;;;10337654;28;20431;-58
2021/10/30 04:21:12;;;;;;;23.10;9.60;;;4.20;99.90;;;;;;10354584;28;20053;-58
2021/10/30 04:26:14;;;;;;;26.48;11.40;;;4.20;99.90;;;;;;10359186;28;20077;-58
2021/10/30 04:31:21;;;;;;;25.00;8.68;;;4.20;99.90;;;;;;10357155;28;20505;-58
2021/10/30 04:36:25;;;;;;;22.02;8.93;;;4.30;99.90;;;;;;10355716;28;20058;-58
2021/10/30 04:41:27;;;;;;;28.50;10.40;;;4.20;99.90;;;;;;10347837;28;20049;-58
2021/10/30 04:46:29;;;;;;;22.42;8.57;;;4.20;99.90;;;;;;10348168;28;20054;-58
2021/10/30 04:51:31;;;;;;;25.17;10.25;;;4.20;99.90;;;;;;10351718;28;20107;-56
2021/10/30 04:56:33;;;;;;;16.58;8.38;;;4.10;99.90;;;;;;10347772;28;20065;-56
2021/10/30 05:01:34;;;;;;;20.45;8.90;;;4.10;99.90;;;;;;10349219;28;20062;-56
2021/10/30 05:06:36;;;;;;;21.80;8.85;;;4.20;99.90;;;;;;10350482;28;20064;-57
2021/10/30 05:11:38;;;;;;;22.25;8.77;;;4.20;99.90;;;;;;10350215;28;20120;-57
2021/10/30 05:16:39;;;;;;;16.88;7.97;;;4.20;99.90;;;;;;10347710;28;20053;-57
2021/10/30 05:21:43;;;;;;;21.15;9.18;;;4.30;99.90;;;;;;10346780;28;20104;-56
2021/10/30 05:26:44;;;;;;;21.92;9.35;;;4.30;99.90;;;;;;10350270;28;20463;-57
2021/10/30 05:31:46;;;;;;;21.10;8.05;;;4.40;99.90;;;;;;10349366;28;20062;-56
2021/10/30 05:36:48;;;;;;;22.30;8.55;;;4.40;99.90;;;;;;10345783;28;20093;-56
2021/10/30 05:41:50;;;;;;;23.38;9.32;;;4.40;99.90;;;;;;10349770;28;20132;-57
2021/10/30 05:46:52;;;;;;;22.20;10.00;;;4.50;99.90;;;;;;10350941;28;20116;-57
2021/10/30 05:51:54;;;;;;;24.45;10.25;;;4.50;99.90;;;;;;10347335;28;20054;-57
2021/10/30 05:56:55;;;;;;;24.52;9.50;;;4.50;99.90;;;;;;10355049;28;20092;-57
2021/10/30 06:01:57;;;;;;;22.33;8.88;;;4.60;99.90;;;;;;10348529;28;20054;-56
2021/10/30 06:06:59;;;;;;;21.42;8.60;;;4.60;99.90;;;;;;10347983;28;20134;-57
2021/10/30 06:12:01;;;;;;;26.75;9.63;;;4.60;99.90;;;;;;10358761;28;20105;-61
2021/10/30 06:17:03;;;;;;;23.65;11.27;;;4.70;99.90;;;;;;10340330;28;20058;-61
2021/10/30 06:22:05;;;;;;;26.90;9.82;;;4.70;99.90;;;;;;10357074;28;20077;-61
2021/10/30 06:27:07;;;;;;;25.40;9.25;;;4.80;99.90;;;;;;10357605;28;20115;-61
2021/10/30 06:32:08;;;;;;;26.95;9.40;;;4.90;99.90;;;;;;10359842;28;20108;-62
2021/10/30 06:37:10;;;;;;;27.20;8.30;;;4.90;99.90;;;;;;10353180;28;20103;-61
2021/10/30 06:42:15;;;;;;;27.30;9.38;;;5.00;99.90;;;;;;10357194;28;20112;-61
2021/10/30 06:47:19;;;;;;;22.80;9.38;;;5.10;99.90;;;;;;10352520;28;20093;-61
2021/10/30 06:52:22;;;;;;;26.98;10.13;;;5.10;99.90;;;;;;10357129;28;20069;-61
2021/10/30 06:57:24;;;;;;;37.60;14.32;;;5.30;99.90;;;;;;10356756;28;20054;-61
2021/10/30 07:02:27;;;;;;;36.22;13.02;;;5.40;99.90;;;;;;10352796;28;20066;-61
2021/10/30 07:07:28;;;;;;;37.85;13.18;;;5.50;99.90;;;;;;10353500;28;20070;-61
2021/10/30 07:12:33;;;;;;;31.60;12.65;;;5.60;99.90;;;;;;10348486;28;20508;-61
2021/10/30 07:17:39;;;;;;;20.10;9.10;;;5.70;99.90;;;;;;10352596;28;20054;-61
2021/10/30 07:22:48;;;;;;;18.65;8.38;;;5.70;99.90;;;;;;10332028;28;20116;-61
2021/10/30 07:27:52;;;;;;;21.73;9.27;;;5.80;99.90;;;;;;10352807;28;20139;-61
2021/10/30 07:32:54;;;;;;;21.45;9.63;;;5.90;99.90;;;;;;10350902;28;20090;-62
2021/10/30 07:37:59;;;;;;;23.27;10.05;;;6.00;99.90;;;;;;10346701;28;20065;-61
2021/10/30 07:43:01;;;;;;;21.92;9.20;;;6.10;99.90;;;;;;10347591;28;20497;-61
2021/10/30 07:48:03;;;;;;;18.65;8.70;;;6.20;99.90;;;;;;10350112;28;20054;-61
2021/10/30 07:53:05;;;;;;;19.75;8.75;;;6.30;99.90;;;;;;10352442;28;20054;-61
2021/10/30 07:58:07;;;;;;;20.58;8.90;;;6.40;99.90;;;;;;10348883;28;20104;-61
2021/10/30 08:03:10;;;;;;;22.58;8.50;;;6.50;99.90;;;;;;10346307;28;20097;-62
2021/10/30 08:08:11;;;;;;;22.27;8.35;;;6.60;99.90;;;;;;10347830;28;20064;-61
2021/10/30 08:13:13;;;;;;;22.38;9.82;;;6.70;99.90;;;;;;10349776;28;20050;-61
2021/10/30 08:18:20;;;;;;;21.60;9.80;;;6.80;99.90;;;;;;10353952;28;20049;-62
2021/10/30 08:23:22;;;;;;;20.13;9.45;;;6.80;99.90;;;;;;10352629;28;20376;-61
2021/10/30 08:28:24;;;;;;;18.40;8.82;;;6.80;99.90;;;;;;10312597;28;20065;-62
2021/10/30 08:33:25;;;;;;;20.13;8.15;;;6.80;99.90;;;;;;10350012;28;20057;-61
2021/10/30 08:38:27;;;;;;;22.00;9.27;;;7.00;99.90;;;;;;10327794;28;20612;-62
2021/10/30 08:43:30;;;;;;;21.50;9.23;;;7.10;99.90;;;;;;10347292;28;20090;-61
2021/10/30 08:48:32;;;;;;;24.77;9.68;;;7.20;99.90;;;;;;10348823;28;20057;-61
2021/10/30 08:53:33;;;;;;;20.50;9.02;;;7.30;99.90;;;;;;10346627;28;20053;-62
2021/10/30 08:58:36;;;;;;;22.02;9.77;;;7.30;99.90;;;;;;10345190;28;20089;-62
2021/10/30 09:03:38;;;;;;;21.27;10.25;;;7.40;99.90;;;;;;10331217;28;20588;-62
2021/10/30 09:08:40;;;;;;;22.30;10.10;;;7.40;99.90;;;;;;10347337;28;20579;-61
2021/10/30 09:13:42;;;;;;;22.17;9.90;;;7.50;99.90;;;;;;10350036;28;20119;-62
2021/10/30 09:18:43;;;;;;;27.35;10.23;;;7.60;99.90;;;;;;10347118;28;20061;-61
2021/10/30 09:23:46;;;;;;;20.67;9.68;;;7.60;99.90;;;;;;10348092;28;20586;-62
2021/10/30 09:28:58;;;;;;;24.70;8.82;;;7.60;99.90;;;;;;10348411;28;20144;-62
2021/10/30 09:34:02;;;;;;;19.90;8.60;;;7.70;99.90;;;;;;10347733;28;20053;-61
2021/10/30 09:39:13;;;;;;;20.40;9.85;;;7.80;99.90;;;;;;10345136;28;20061;-61
2021/10/30 09:44:21;;;;;;;21.85;9.70;;;7.90;99.90;;;;;;10344947;28;20046;-61
2021/10/30 09:49:25;;;;;;;19.67;8.65;;;8.00;99.90;;;;;;10354746;28;20132;-61
2021/10/30 09:54:47;;;;;;;21.25;9.40;;;8.10;99.90;;;;;;10352669;28;20123;-61
2021/10/30 09:59:48;;;;;;;21.98;9.73;;;8.20;99.90;;;;;;10354761;28;20100;-61
2021/10/30 10:04:52;;;;;;;20.10;9.35;;;8.10;99.90;;;;;;10354835;28;20472;-62
2021/10/30 10:09:56;;;;;;;26.30;10.05;;;8.30;99.90;;;;;;10340512;28;20444;-60
2021/10/30 10:15:00;;;;;;;20.00;9.95;;;8.40;99.90;;;;;;10355256;28;20054;-61
2021/10/30 10:20:04;;;;;;;24.42;9.52;;;8.50;99.90;;;;;;10353542;28;20094;-62
2021/10/30 10:25:26;;;;;;;18.33;8.55;;;8.50;99.90;;;;;;10351211;28;20496;-61
2021/10/30 10:31:01;;;;;;;20.75;9.15;;;8.30;99.90;;;;;;10356901;28;20073;-59
2021/10/30 10:36:24;;;;;;;22.80;9.07;;;8.50;99.90;;;;;;10351788;28;20046;-58
2021/10/30 10:41:37;;;;;;;22.00;10.20;;;8.40;99.90;;;;;;10347089;28;20123;-58
2021/10/30 10:46:41;;;;;;;22.23;9.50;;;8.40;99.90;;;;;;10351343;28;20049;-59
2021/10/30 10:52:07;;;;;;;26.40;9.90;;;8.60;99.90;;;;;;10355720;28;20112;-58
2021/10/30 10:57:20;;;;;;;22.95;9.60;;;8.60;99.90;;;;;;10338139;28;20630;-59
2021/10/30 11:02:28;;;;;;;18.75;9.48;;;8.80;99.90;;;;;;10350531;28;20050;-58
2021/10/30 11:07:30;;;;;;;22.30;9.27;;;8.90;99.90;;;;;;10352584;28;20108;-58
2021/10/30 11:12:32;;;;;;;22.73;9.35;;;8.80;99.90;;;;;;10352448;28;20496;-57
2021/10/30 11:18:05;;;;;;;22.60;10.57;;;8.70;99.90;;;;;;10352155;28;20748;-57
2021/10/30 11:23:17;;;;;;;23.13;9.57;;;8.70;99.90;;;;;;10350383;28;20511;-58
2021/10/30 11:28:23;;;;;;;22.05;9.75;;;8.90;99.90;;;;;;10336369;28;20050;-63
2021/10/30 11:33:27;;;;;;;19.50;8.73;;;9.00;99.90;;;;;;10352038;28;20194;-63
2021/10/30 11:38:35;;;;;;;19.63;8.30;;;9.10;99.90;;;;;;10349017;28;20736;-63
2021/10/30 11:43:38;;;;;;;23.13;9.70;;;8.80;99.90;;;;;;10349556;28;20060;-63
2021/10/30 11:48:41;;;;;;;24.67;9.93;;;8.90;99.90;;;;;;10349512;28;20448;-63
2021/10/30 11:53:44;;;;;;;24.08;8.82;;;9.20;99.90;;;;;;10334167;28;20501;-63
2021/10/30 11:58:47;;;;;;;24.58;9.20;;;9.30;99.90;;;;;;10350061;28;20057;-63
2021/10/30 12:04:01;;;;;;;16.73;7.88;;;9.40;99.90;;;;;;10355285;28;20061;-63
2021/10/30 12:09:26;;;;;;;21.42;8.25;;;9.30;99.90;;;;;;10346944;28;20169;-63
2021/10/30 12:14:34;;;;;;;22.65;7.93;;;9.50;99.90;;;;;;10352202;28;20099;-63
2021/10/30 12:19:39;;;;;;;19.98;6.35;;;9.40;99.90;;;;;;10355131;28;20116;-63
2021/10/30 12:24:42;;;;;;;16.75;7.00;;;9.30;99.90;;;;;;10350419;28;20077;-63
2021/10/30 12:29:45;;;;;;;19.92;7.40;;;9.30;99.90;;;;;;10350352;28;20054;-63
2021/10/30 12:34:55;;;;;;;19.40;6.78;;;9.50;99.90;;;;;;10349831;28;20045;-63
2021/10/30 12:39:59;;;;;;;15.10;7.22;;;9.30;99.90;;;;;;10334501;28;20496;-63
2021/10/30 12:45:02;;;;;;;19.08;7.55;;;9.60;99.90;;;;;;10346763;28;20123;-63
2021/10/30 12:50:07;;;;;;;22.30;8.52;;;9.50;99.90;;;;;;10343353;28;20054;-62
2021/10/30 12:55:15;;;;;;;16.33;7.25;;;9.60;99.90;;;;;;10343852;28;20046;-62
2021/10/30 13:00:17;;;;;;;18.42;6.43;;;9.70;99.90;;;;;;10337191;28;20057;-62
2021/10/30 13:05:21;;;;;;;16.48;6.95;;;9.80;99.90;;;;;;10334299;28;20104;-62
2021/10/30 13:10:28;;;;;;;21.08;7.80;;;9.80;99.90;;;;;;10330304;28;20062;-62
2021/10/30 13:15:31;;;;;;;16.98;7.32;;;9.70;99.90;;;;;;10352461;28;20057;-63
2021/10/30 13:20:33;;;;;;;18.77;6.68;;;9.60;99.90;;;;;;10348245;28;20050;-63
2021/10/30 13:25:34;;;;;;;16.35;6.20;;;9.60;99.90;;;;;;10320484;28;20128;-62
2021/10/30 13:30:36;;;;;;;17.35;6.90;;;9.40;99.90;;;;;;10330609;28;20057;-63
2021/10/30 13:35:38;;;;;;;15.20;6.82;;;9.40;99.90;;;;;;10350122;28;20128;-63
2021/10/30 13:40:39;;;;;;;18.75;7.03;;;9.20;99.90;;;;;;10349958;28;20081;-63
2021/10/30 13:45:41;;;;;;;22.33;8.93;;;9.10;99.90;;;;;;10345479;28;20042;-62
2021/10/30 13:50:43;;;;;;;18.83;8.48;;;9.20;99.90;;;;;;10328607;28;20501;-63
2021/10/30 13:55:44;;;;;;;20.02;8.63;;;9.10;99.90;;;;;;10348860;28;20046;-63
2021/10/30 14:00:46;;;;;;;20.98;10.20;;;9.20;99.90;;;;;;10348519;28;20085;-63
2021/10/30 14:05:48;;;;;;;24.15;9.32;;;9.20;99.90;;;;;;10348819;28;20060;-63
2021/10/30 14:10:50;;;;;;;17.75;8.43;;;9.20;99.90;;;;;;10347694;28;20484;-63
2021/10/30 14:15:51;;;;;;;23.38;9.45;;;9.30;99.90;;;;;;10349377;28;20120;-63
2021/10/30 14:20:55;;;;;;;20.35;8.35;;;9.30;99.90;;;;;;10348878;28;20053;-64
2021/10/30 14:25:58;;;;;;;22.58;9.02;;;9.20;99.90;;;;;;10351963;28;20058;-63
2021/10/30 14:31:02;;;;;;;25.83;9.63;;;9.30;99.90;;;;;;10354454;28;20124;-64
2021/10/30 14:36:04;;;;;;;25.77;9.40;;;9.40;99.90;;;;;;10355717;28;20050;-64
2021/10/30 14:41:05;;;;;;;18.38;8.10;;;9.40;99.90;;;;;;10355179;28;20054;-64
2021/10/30 14:46:07;;;;;;;17.33;8.38;;;9.30;99.90;;;;;;10351692;28;20078;-63
2021/10/30 14:51:10;;;;;;;17.38;8.15;;;9.20;99.90;;;;;;10354877;28;20077;-63
2021/10/30 14:56:11;;;;;;;21.15;9.02;;;9.30;99.90;;;;;;10352128;28;20108;-62
2021/10/30 15:01:16;;;;;;;21.13;9.07;;;9.20;99.90;;;;;;10353741;28;20081;-62
2021/10/30 15:06:19;;;;;;;21.85;9.48;;;9.20;99.90;;;;;;10357248;28;20048;-62
2021/10/30 15:11:21;;;;;;;20.50;9.05;;;9.10;99.90;;;;;;10353305;28;20101;-62
2021/10/30 15:16:23;;;;;;;26.08;9.57;;;9.10;99.90;;;;;;10358193;28;20064;-62
2021/10/30 15:21:25;;;;;;;20.38;9.10;;;9.20;99.90;;;;;;10353003;28;20062;-62
2021/10/30 15:26:27;;;;;;;22.98;8.98;;;9.20;99.90;;;;;;10349267;28;20053;-62
2021/10/30 15:31:29;;;;;;;20.20;9.65;;;9.10;99.90;;;;;;10353182;28;20074;-61
2021/10/30 15:36:31;;;;;;;24.85;9.18;;;9.10;99.90;;;;;;10350932;28;20078;-62
2021/10/30 15:41:36;;;;;;;24.08;9.77;;;9.10;99.90;;;;;;10347888;28;20773;-62
2021/10/30 15:46:37;;;;;;;23.27;9.77;;;8.90;99.90;;;;;;10352028;28;20725;-63
2021/10/30 15:51:39;;;;;;;18.00;8.73;;;8.90;99.90;;;;;;10332591;28;20072;-62
2021/10/30 15:56:41;;;;;;;24.83;10.13;;;8.80;99.90;;;;;;10351551;28;20065;-62
2021/10/30 16:01:43;;;;;;;19.52;8.65;;;8.70;99.90;;;;;;10354215;28;20163;-61
2021/10/30 16:06:45;;;;;;;25.58;10.05;;;8.70;99.90;;;;;;10351082;28;20389;-63
2021/10/30 16:11:50;;;;;;;21.77;9.23;;;8.60;99.90;;;;;;10350426;28;20093;-63
2021/10/30 16:16:52;;;;;;;22.60;9.65;;;8.50;99.90;;;;;;10349650;28;20227;-63
2021/10/30 16:22:14;;;;;;;23.98;9.43;;;8.50;99.90;;;;;;10350605;28;20166;-58
2021/10/30 16:27:15;;;;;;;21.77;9.95;;;8.40;99.90;;;;;;10349774;28;20054;-57
2021/10/30 16:32:17;;;;;;;27.23;9.93;;;8.40;99.90;;;;;;10348992;28;20065;-58
2021/10/30 16:37:21;;;;;;;28.98;9.65;;;8.40;99.90;;;;;;10347139;28;20057;-58
2021/10/30 16:42:23;;;;;;;23.13;10.07;;;8.50;99.90;;;;;;10352510;28;20058;-58
2021/10/30 16:47:25;;;;;;;28.67;11.77;;;8.40;99.90;;;;;;10354019;28;20765;-62
2021/10/30 16:52:27;;;;;;;22.92;9.48;;;8.50;99.90;;;;;;10349942;28;20050;-62
2021/10/30 16:57:29;;;;;;;28.90;11.07;;;8.40;99.90;;;;;;10350114;28;20057;-59
2021/10/30 17:02:30;;;;;;;26.90;11.20;;;8.40;99.90;;;;;;10352448;28;20053;-58
2021/10/30 17:07:32;;;;;;;21.25;9.07;;;8.50;99.90;;;;;;10354070;28;20050;-58
2021/10/30 17:12:34;;;;;;;22.88;9.50;;;8.40;99.90;;;;;;10351899;28;20054;-59
2021/10/30 17:17:36;;;;;;;23.77;10.13;;;8.40;99.90;;;;;;10340851;28;20058;-59
2021/10/30 17:22:38;;;;;;;21.67;8.73;;;8.40;99.90;;;;;;10353719;28;20077;-58
2021/10/30 17:27:39;;;;;;;23.23;9.98;;;8.50;99.90;;;;;;10345522;28;20112;-58
2021/10/30 17:32:46;;;;;;;21.83;9.40;;;8.40;99.90;;;;;;10345995;28;20053;-57
2021/10/30 17:37:47;;;;;;;22.15;10.15;;;8.50;99.90;;;;;;10342214;28;20464;-58
2021/10/30 17:42:49;;;;;;;22.30;10.63;;;8.40;99.90;;;;;;10344951;28;20062;-58
2021/10/30 17:47:51;;;;;;;24.60;11.25;;;8.50;99.90;;;;;;10334153;28;20159;-58
2021/10/30 17:52:53;;;;;;;24.90;11.10;;;8.50;99.90;;;;;;10349966;28;20574;-59
2021/10/30 17:57:55;;;;;;;29.73;12.43;;;8.50;99.90;;;;;;10347384;28;20057;-58
2021/10/30 18:02:56;;;;;;;23.27;10.50;;;8.40;99.90;;;;;;10347299;28;20140;-58
2021/10/30 18:08:00;;;;;;;26.70;10.38;;;8.50;99.90;;;;;;10319730;28;20393;-58
2021/10/30 18:13:01;;;;;;;24.48;10.57;;;8.50;99.90;;;;;;10350592;28;20053;-59
2021/10/30 18:18:03;;;;;;;21.33;10.02;;;8.50;99.90;;;;;;10353318;28;20492;-59
2021/10/30 18:23:05;;;;;;;25.27;10.75;;;8.50;99.90;;;;;;10334547;28;20049;-59
2021/10/30 18:28:07;;;;;;;24.45;9.40;;;8.50;99.90;;;;;;10358400;28;20077;-59
2021/10/30 18:33:08;;;;;;;23.55;10.05;;;8.60;99.90;;;;;;10350892;28;20050;-59
2021/10/30 18:38:10;;;;;;;25.77;10.35;;;8.60;99.90;;;;;;10337393;28;20050;-59
2021/10/30 18:43:12;;;;;;;28.58;10.82;;;8.60;99.90;;;;;;10352659;28;20216;-58
2021/10/30 18:48:14;;;;;;;26.52;10.43;;;8.50;99.90;;;;;;10341687;28;20057;-58
2021/10/30 18:53:16;;;;;;;28.77;12.23;;;8.50;99.90;;;;;;10352662;28;20100;-57
2021/10/30 18:58:18;;;;;;;23.70;9.50;;;8.50;99.90;;;;;;10351369;28;20069;-57
2021/10/30 19:03:19;;;;;;;24.85;9.38;;;8.60;99.90;;;;;;10352687;28;20127;-58
2021/10/30 19:08:21;;;;;;;24.77;10.43;;;8.60;99.90;;;;;;10333677;28;20493;-59
2021/10/30 19:13:23;;;;;;;22.90;9.68;;;8.60;99.90;;;;;;10355502;28;20050;-58
2021/10/30 19:18:25;;;;;;;23.02;9.75;;;8.60;99.90;;;;;;10352684;28;20054;-57
2021/10/30 19:23:27;;;;;;;24.00;10.23;;;8.70;99.90;;;;;;10351895;28;20115;-59
2021/10/30 19:28:28;;;;;;;22.27;9.05;;;8.70;99.90;;;;;;10351617;28;20116;-58
2021/10/30 19:33:31;;;;;;;22.75;10.18;;;8.60;99.90;;;;;;10353395;28;20123;-59
2021/10/30 19:38:32;;;;;;;21.98;10.60;;;8.70;99.90;;;;;;10349791;28;20541;-60
2021/10/30 19:43:35;;;;;;;18.00;9.25;;;8.70;99.90;;;;;;10350438;28;20061;-60
2021/10/30 19:48:37;;;;;;;22.55;10.07;;;8.70;99.90;;;;;;10351331;28;20054;-59
2021/10/30 19:53:40;;;;;;;20.80;8.98;;;8.70;99.90;;;;;;10344677;28;20111;-59
2021/10/30 19:58:43;;;;;;;21.60;9.63;;;8.70;99.90;;;;;;10349552;28;20447;-59
2021/10/30 20:03:51;;;;;;;17.10;8.50;;;8.80;99.90;;;;;;10353630;28;20527;-59
2021/10/30 20:08:53;;;;;;;20.27;9.75;;;8.80;99.90;;;;;;10349142;28;20512;-59
2021/10/30 20:13:57;;;;;;;18.08;9.55;;;8.80;99.90;;;;;;10332415;28;20050;-59
2021/10/30 20:18:58;;;;;;;23.88;9.23;;;8.80;99.90;;;;;;10351847;28;20543;-59
2021/10/30 20:24:01;;;;;;;16.85;8.93;;;8.80;99.90;;;;;;10346485;28;20128;-58
2021/10/30 20:29:05;;;;;;;19.70;9.40;;;8.90;99.90;;;;;;10350333;28;20054;-58
2021/10/30 20:34:24;;;;;;;14.88;8.40;;;8.90;99.90;;;;;;10340545;28;20177;-58
2021/10/30 20:39:30;;;;;;;23.58;9.45;;;9.00;99.90;;;;;;10349031;28;20089;-60
2021/10/30 20:44:35;;;;;;;20.65;9.18;;;9.00;99.90;;;;;;10336777;28;20069;-59
2021/10/30 20:49:36;;;;;;;16.08;8.73;;;9.10;99.90;;;;;;10348110;28;20062;-59
2021/10/30 20:54:39;;;;;;;19.50;8.48;;;9.10;99.90;;;;;;10350063;28;20112;-59
2021/10/30 20:59:41;;;;;;;16.55;8.18;;;9.10;99.90;;;;;;10349477;28;20049;-58
2021/10/30 21:04:44;;;;;;;16.67;8.57;;;9.10;99.90;;;;;;10350151;28;20522;-60
2021/10/30 21:09:46;;;;;;;18.60;9.30;;;9.20;99.90;;;;;;10346985;28;20053;-59
2021/10/30 21:14:48;;;;;;;20.52;8.52;;;9.20;99.90;;;;;;10352062;28;20058;-59
2021/10/30 21:19:50;;;;;;;15.07;8.93;;;9.20;99.90;;;;;;10347864;28;20057;-58
2021/10/30 21:24:51;;;;;;;20.70;8.80;;;9.30;99.90;;;;;;10329377;28;20650;-59
2021/10/30 21:29:53;;;;;;;17.63;9.52;;;9.30;99.90;;;;;;10348183;28;20072;-59
2021/10/30 21:34:55;;;;;;;17.88;9.95;;;9.30;99.90;;;;;;10347056;28;20053;-60
2021/10/30 21:39:57;;;;;;;17.45;8.80;;;9.30;99.90;;;;;;10348080;28;20104;-59
2021/10/30 21:44:59;;;;;;;19.52;8.88;;;9.30;99.90;;;;;;10347229;28;20049;-59
2021/10/30 21:50:01;;;;;;;19.15;9.38;;;9.30;99.90;;;;;;10329338;28;20053;-59
2021/10/30 21:55:04;;;;;;;15.73;8.02;;;9.40;99.90;;;;;;10345131;28;20081;-59
2021/10/30 22:00:18;;;;;;;18.48;8.70;;;9.40;99.90;;;;;;10347154;28;20054;-57
2021/10/30 22:05:21;;;;;;;18.90;8.50;;;9.40;99.90;;;;;;10345954;28;20045;-58
2021/10/30 22:10:22;;;;;;;14.35;8.48;;;9.40;99.90;;;;;;10344533;28;20060;-59
2021/10/30 22:15:24;;;;;;;17.77;8.88;;;9.40;99.90;;;;;;10345549;28;20057;-59
2021/10/30 22:20:26;;;;;;;18.75;8.13;;;9.40;99.90;;;;;;10351390;28;20080;-60
2021/10/30 22:25:28;;;;;;;18.23;9.65;;;9.40;99.90;;;;;;10346370;28;20050;-59
2021/10/30 22:30:29;;;;;;;14.70;8.15;;;9.40;99.90;;;;;;10341859;28;20459;-59
2021/10/30 22:35:34;;;;;;;14.85;8.10;;;9.50;99.90;;;;;;10351871;28;20057;-59
2021/10/30 22:40:38;;;;;;;15.50;8.10;;;9.50;99.90;;;;;;10339779;28;20049;-59
2021/10/30 22:45:39;;;;;;;12.50;7.07;;;9.50;99.90;;;;;;10348871;28;20640;-59
2021/10/30 22:50:41;;;;;;;14.75;8.10;;;9.50;99.90;;;;;;10347765;28;20060;-60
2021/10/30 22:55:43;;;;;;;16.63;8.02;;;9.50;99.90;;;;;;10353608;28;20058;-59
2021/10/30 23:00:45;;;;;;;18.27;8.25;;;9.60;99.90;;;;;;10351725;28;20045;-59
2021/10/30 23:05:47;;;;;;;12.82;8.15;;;9.50;99.90;;;;;;10325431;28;20058;-59
2021/10/30 23:10:49;;;;;;;18.15;8.60;;;9.60;99.90;;;;;;10351209;28;20072;-59
2021/10/30 23:15:50;;;;;;;15.13;7.85;;;9.60;99.90;;;;;;10352955;28;20058;-60
2021/10/30 23:20:53;;;;;;;16.50;8.20;;;9.60;99.90;;;;;;10351026;28;20053;-59
2021/10/30 23:25:54;;;;;;;15.85;7.78;;;9.60;99.90;;;;;;10332544;28;20542;-59
2021/10/30 23:30:56;;;;;;;15.55;8.43;;;9.60;99.90;;;;;;10327470;28;20058;-59
2021/10/30 23:35:59;;;;;;;17.42;8.68;;;9.60;99.90;;;;;;10353608;28;20054;-60
2021/10/30 23:41:00;;;;;;;16.20;8.20;;;9.70;99.90;;;;;;10348599;28;20085;-58
2021/10/30 23:46:03;;;;;;;15.20;7.88;;;9.70;99.90;;;;;;10351527;28;20782;-59
2021/10/30 23:51:05;;;;;;;15.88;9.18;;;9.70;99.90;;;;;;10349509;28;20583;-59
2021/10/30 23:56:08;;;;;;;15.57;8.55;;;9.70;99.90;;;;;;10343339;28;20050;-59
